sensor_id;sensor_type;location;lat;lon;timestamp;pressure;altitude;pressure_sealevel;temperature;humidity
29215;BME280;16252;49.816;7.964;2023-04-19T00:02:05;100788.16;;;13.73;53.59
29215;BME280;16252;49.816;7.964;2023-04-19T00:04:33;100776.00;;;13.56;53.57
29215;BME280;16252;49.816;7.964;2023-04-19T00:06:58;100795.50;;;13.71;53.57
29215;BME280;16252;49.816;7.964;2023-04-19T00:09:23;100790.81;;;13.61;53.70
29215;BME280;16252;49.816;7.964;2023-04-19T00:11:48;100770.97;;;13.51;53.68
29215;BME280;16252;49.816;7.964;2023-04-19T00:14:14;100783.31;;;13.54;53.93
29215;BME280;16252;49.816;7.964;2023-04-19T00:16:39;100767.28;;;13.41;53.99
29215;BME280;16252;49.816;7.964;2023-04-19T00:19:05;100741.84;;;13.34;53.89
29215;BME280;16252;49.816;7.964;2023-04-19T00:21:30;100773.06;;;13.48;53.93
29215;BME280;16252;49.816;7.964;2023-04-19T00:23:56;100764.34;;;13.44;53.75
29215;BME280;16252;49.816;7.964;2023-04-19T00:26:21;100776.25;;;13.53;53.79
29215;BME280;16252;49.816;7.964;2023-04-19T00:28:46;100759.09;;;13.42;53.88
29215;BME280;16252;49.816;7.964;2023-04-19T00:31:11;100758.97;;;13.44;53.73
29215;BME280;16252;49.816;7.964;2023-04-19T00:33:37;100752.97;;;13.40;53.87
29215;BME280;16252;49.816;7.964;2023-04-19T00:36:02;100759.09;;;13.42;53.64
29215;BME280;16252;49.816;7.964;2023-04-19T00:38:27;100763.75;;;13.40;53.73
29215;BME280;16252;49.816;7.964;2023-04-19T00:40:53;100763.63;;;13.42;53.84
29215;BME280;16252;49.816;7.964;2023-04-19T00:43:18;100775.41;;;13.52;53.95
29215;BME280;16252;49.816;7.964;2023-04-19T00:45:44;100765.00;;;13.48;53.82
29215;BME280;16252;49.816;7.964;2023-04-19T00:48:11;100736.69;;;13.31;53.91
29215;BME280;16252;49.816;7.964;2023-04-19T00:50:37;100734.84;;;13.31;54.03
29215;BME280;16252;49.816;7.964;2023-04-19T00:53:02;100735.38;;;13.36;54.07
29215;BME280;16252;49.816;7.964;2023-04-19T00:55:28;100754.47;;;13.44;54.35
29215;BME280;16252;49.816;7.964;2023-04-19T00:57:53;100745.66;;;13.42;54.26
29215;BME280;16252;49.816;7.964;2023-04-19T01:00:18;100760.34;;;13.50;54.27
29215;BME280;16252;49.816;7.964;2023-04-19T01:02:44;100762.56;;;13.56;54.24
29215;BME280;16252;49.816;7.964;2023-04-19T01:05:10;100752.41;;;13.48;54.35
29215;BME280;16252;49.816;7.964;2023-04-19T01:07:36;100749.38;;;13.53;54.41
29215;BME280;16252;49.816;7.964;2023-04-19T01:10:01;100727.59;;;13.44;54.35
29215;BME280;16252;49.816;7.964;2023-04-19T01:12:26;100736.63;;;13.43;54.28
29215;BME280;16252;49.816;7.964;2023-04-19T01:14:52;100694.34;;;13.21;54.33
29215;BME280;16252;49.816;7.964;2023-04-19T01:17:18;100741.53;;;13.50;54.45
29215;BME280;16252;49.816;7.964;2023-04-19T01:19:43;100731.38;;;13.42;54.50
29215;BME280;16252;49.816;7.964;2023-04-19T01:22:09;100735.75;;;13.43;54.47
29215;BME280;16252;49.816;7.964;2023-04-19T01:24:34;100727.94;;;13.40;54.66
29215;BME280;16252;49.816;7.964;2023-04-19T01:26:59;100727.69;;;13.43;54.48
29215;BME280;16252;49.816;7.964;2023-04-19T01:31:51;100728.69;;;13.42;54.41
29215;BME280;16252;49.816;7.964;2023-04-19T01:34:18;100721.72;;;13.39;54.78
29215;BME280;16252;49.816;7.964;2023-04-19T01:36:43;100727.47;;;13.46;54.77
29215;BME280;16252;49.816;7.964;2023-04-19T01:39:09;100718.66;;;13.44;54.50
29215;BME280;16252;49.816;7.964;2023-04-19T01:41:34;100681.06;;;13.20;54.54
29215;BME280;16252;49.816;7.964;2023-04-19T01:44:00;100719.63;;;13.43;54.66
29215;BME280;16252;49.816;7.964;2023-04-19T01:46:25;100675.53;;;13.21;54.51
29215;BME280;16252;49.816;7.964;2023-04-19T01:48:50;100732.47;;;13.51;54.59
29215;BME280;16252;49.816;7.964;2023-04-19T01:51:16;100737.88;;;13.51;54.57
29215;BME280;16252;49.816;7.964;2023-04-19T01:53:41;100701.75;;;13.31;54.72
29215;BME280;16252;49.816;7.964;2023-04-19T01:56:06;100676.03;;;13.15;54.85
29215;BME280;16252;49.816;7.964;2023-04-19T01:58:32;100624.75;;;12.83;54.95
29215;BME280;16252;49.816;7.964;2023-04-19T02:00:57;100695.00;;;13.25;54.83
29215;BME280;16252;49.816;7.964;2023-04-19T02:03:22;100662.94;;;13.11;55.07
29215;BME280;16252;49.816;7.964;2023-04-19T02:05:47;100715.34;;;13.40;55.28
29215;BME280;16252;49.816;7.964;2023-04-19T02:08:13;100643.38;;;12.97;54.87
29215;BME280;16252;49.816;7.964;2023-04-19T02:10:38;100677.50;;;13.19;55.11
29215;BME280;16252;49.816;7.964;2023-04-19T02:13:03;100653.19;;;13.10;55.09
29215;BME280;16252;49.816;7.964;2023-04-19T02:15:29;100686.72;;;13.28;55.05
29215;BME280;16252;49.816;7.964;2023-04-19T02:17:54;100705.22;;;13.44;55.14
29215;BME280;16252;49.816;7.964;2023-04-19T02:20:19;100698.38;;;13.40;55.26
29215;BME280;16252;49.816;7.964;2023-04-19T02:22:44;100696.44;;;13.42;55.26
29215;BME280;16252;49.816;7.964;2023-04-19T02:25:12;100694.84;;;13.39;55.29
29215;BME280;16252;49.816;7.964;2023-04-19T02:27:37;100697.13;;;13.44;55.41
29215;BME280;16252;49.816;7.964;2023-04-19T02:30:03;100696.44;;;13.42;55.24
29215;BME280;16252;49.816;7.964;2023-04-19T02:32:28;100705.84;;;13.48;55.41
29215;BME280;16252;49.816;7.964;2023-04-19T02:34:53;100702.91;;;13.51;54.90
29215;BME280;16252;49.816;7.964;2023-04-19T02:37:19;100623.72;;;13.08;54.90
29215;BME280;16252;49.816;7.964;2023-04-19T02:39:44;100692.06;;;13.52;55.28
29215;BME280;16252;49.816;7.964;2023-04-19T02:42:10;100618.34;;;13.08;55.21
29215;BME280;16252;49.816;7.964;2023-04-19T02:44:35;100619.69;;;13.02;55.20
29215;BME280;16252;49.816;7.964;2023-04-19T02:47:00;100645.97;;;13.21;55.18
29215;BME280;16252;49.816;7.964;2023-04-19T02:49:26;100673.44;;;13.38;55.16
29215;BME280;16252;49.816;7.964;2023-04-19T02:51:51;100677.22;;;13.47;55.22
29215;BME280;16252;49.816;7.964;2023-04-19T02:54:16;100695.69;;;13.51;55.51
29215;BME280;16252;49.816;7.964;2023-04-19T02:56:42;100688.13;;;13.45;55.44
29215;BME280;16252;49.816;7.964;2023-04-19T02:59:07;100658.84;;;13.29;55.46
29215;BME280;16252;49.816;7.964;2023-04-19T03:01:32;100668.31;;;13.35;55.37
29215;BME280;16252;49.816;7.964;2023-04-19T03:03:57;100672.69;;;13.36;55.29
29215;BME280;16252;49.816;7.964;2023-04-19T03:06:23;100684.69;;;13.43;55.48
29215;BME280;16252;49.816;7.964;2023-04-19T03:08:49;100668.53;;;13.32;55.60
29215;BME280;16252;49.816;7.964;2023-04-19T03:11:15;100653.94;;;13.23;55.64
29215;BME280;16252;49.816;7.964;2023-04-19T03:13:41;100684.09;;;13.39;55.53
29215;BME280;16252;49.816;7.964;2023-04-19T03:16:07;100643.53;;;13.18;55.74
29215;BME280;16252;49.816;7.964;2023-04-19T03:18:32;100602.31;;;12.95;55.44
29215;BME280;16252;49.816;7.964;2023-04-19T03:20:58;100653.63;;;13.28;55.75
29215;BME280;16252;49.816;7.964;2023-04-19T03:23:25;100672.22;;;13.42;55.68
29215;BME280;16252;49.816;7.964;2023-04-19T03:25:51;100613.34;;;13.04;55.73
29215;BME280;16252;49.816;7.964;2023-04-19T03:28:16;100655.47;;;13.27;55.73
29215;BME280;16252;49.816;7.964;2023-04-19T03:30:41;100632.28;;;13.13;55.76
29215;BME280;16252;49.816;7.964;2023-04-19T03:33:06;100648.31;;;13.26;55.81
29215;BME280;16252;49.816;7.964;2023-04-19T03:35:32;100616.41;;;13.10;55.87
29215;BME280;16252;49.816;7.964;2023-04-19T03:37:57;100612.88;;;13.10;55.76
29215;BME280;16252;49.816;7.964;2023-04-19T03:40:23;100620.59;;;13.14;55.96
29215;BME280;16252;49.816;7.964;2023-04-19T03:42:48;100579.88;;;12.96;55.90
29215;BME280;16252;49.816;7.964;2023-04-19T03:45:13;100636.41;;;13.30;55.92
29215;BME280;16252;49.816;7.964;2023-04-19T03:47:39;100642.88;;;13.39;55.87
29215;BME280;16252;49.816;7.964;2023-04-19T03:50:04;100643.53;;;13.42;55.71
29215;BME280;16252;49.816;7.964;2023-04-19T03:52:30;100611.19;;;13.20;56.08
29215;BME280;16252;49.816;7.964;2023-04-19T03:54:55;100572.53;;;12.98;56.14
29215;BME280;16252;49.816;7.964;2023-04-19T03:57:20;100607.16;;;13.14;55.86
29215;BME280;16252;49.816;7.964;2023-04-19T03:59:46;100624.13;;;13.26;55.96
29215;BME280;16252;49.816;7.964;2023-04-19T04:02:11;100463.50;;;12.27;55.87
29215;BME280;16252;49.816;7.964;2023-04-19T04:04:36;100614.13;;;13.17;55.91
29215;BME280;16252;49.816;7.964;2023-04-19T04:07:02;100590.03;;;13.04;56.14
29215;BME280;16252;49.816;7.964;2023-04-19T04:09:27;100619.84;;;13.23;56.06
29215;BME280;16252;49.816;7.964;2023-04-19T04:11:52;100650.09;;;13.38;56.16
29215;BME280;16252;49.816;7.964;2023-04-19T04:14:17;100643.97;;;13.36;55.99
29215;BME280;16252;49.816;7.964;2023-04-19T04:16:43;100646.06;;;13.33;55.89
29215;BME280;16252;49.816;7.964;2023-04-19T04:19:08;100633.06;;;13.27;55.97
29215;BME280;16252;49.816;7.964;2023-04-19T04:21:33;100559.94;;;12.76;55.96
29215;BME280;16252;49.816;7.964;2023-04-19T04:23:59;100631.09;;;13.17;56.07
29215;BME280;16252;49.816;7.964;2023-04-19T04:26:25;100648.25;;;13.28;56.21
29215;BME280;16252;49.816;7.964;2023-04-19T04:28:55;100601.22;;;12.98;56.08
29215;BME280;16252;49.816;7.964;2023-04-19T04:31:20;100642.44;;;13.21;56.18
29215;BME280;16252;49.816;7.964;2023-04-19T04:33:45;100634.63;;;13.18;56.26
29215;BME280;16252;49.816;7.964;2023-04-19T04:36:10;100611.03;;;12.99;56.37
29215;BME280;16252;49.816;7.964;2023-04-19T04:38:36;100648.47;;;13.25;56.45
29215;BME280;16252;49.816;7.964;2023-04-19T04:41:01;100622.38;;;13.02;56.35
29215;BME280;16252;49.816;7.964;2023-04-19T04:43:27;100643.19;;;13.12;56.33
29215;BME280;16252;49.816;7.964;2023-04-19T04:45:54;100651.59;;;13.18;56.42
29215;BME280;16252;49.816;7.964;2023-04-19T04:48:21;100646.81;;;13.11;56.56
29215;BME280;16252;49.816;7.964;2023-04-19T04:50:46;100636.66;;;13.03;56.45
29215;BME280;16252;49.816;7.964;2023-04-19T04:53:12;100588.38;;;12.79;56.51
29215;BME280;16252;49.816;7.964;2023-04-19T04:55:37;100607.09;;;12.92;56.48
29215;BME280;16252;49.816;7.964;2023-04-19T04:58:02;100607.44;;;12.87;56.57
29215;BME280;16252;49.816;7.964;2023-04-19T05:00:30;100644.13;;;13.11;56.66
29215;BME280;16252;49.816;7.964;2023-04-19T05:02:55;100559.25;;;12.62;56.48
29215;BME280;16252;49.816;7.964;2023-04-19T05:05:21;100636.91;;;13.11;56.90
29215;BME280;16252;49.816;7.964;2023-04-19T05:07:46;100643.69;;;13.17;56.83
29215;BME280;16252;49.816;7.964;2023-04-19T05:10:12;100662.75;;;13.25;56.97
29215;BME280;16252;49.816;7.964;2023-04-19T05:12:37;100641.00;;;13.17;56.72
29215;BME280;16252;49.816;7.964;2023-04-19T05:15:02;100660.84;;;13.27;56.71
29215;BME280;16252;49.816;7.964;2023-04-19T05:17:28;100624.72;;;13.07;56.54
29215;BME280;16252;49.816;7.964;2023-04-19T05:19:53;100531.91;;;12.56;56.74
29215;BME280;16252;49.816;7.964;2023-04-19T05:22:18;100664.03;;;13.32;56.91
29215;BME280;16252;49.816;7.964;2023-04-19T05:24:43;100612.63;;;13.01;57.04
29215;BME280;16252;49.816;7.964;2023-04-19T05:27:09;100642.94;;;13.26;56.84
29215;BME280;16252;49.816;7.964;2023-04-19T05:29:34;100598.56;;;12.98;56.72
29215;BME280;16252;49.816;7.964;2023-04-19T05:32:00;100630.34;;;13.15;56.86
29215;BME280;16252;49.816;7.964;2023-04-19T05:34:25;100629.38;;;13.16;57.03
29215;BME280;16252;49.816;7.964;2023-04-19T05:36:50;100603.56;;;13.02;56.85
29215;BME280;16252;49.816;7.964;2023-04-19T05:39:15;100626.47;;;13.19;56.95
29215;BME280;16252;49.816;7.964;2023-04-19T05:41:41;100620.44;;;13.16;57.14
29215;BME280;16252;49.816;7.964;2023-04-19T05:44:06;100620.22;;;13.19;57.15
29215;BME280;16252;49.816;7.964;2023-04-19T05:46:32;100607.88;;;13.16;57.01
29215;BME280;16252;49.816;7.964;2023-04-19T05:48:57;100611.44;;;13.17;57.08
29215;BME280;16252;49.816;7.964;2023-04-19T05:51:22;100627.84;;;13.36;57.25
29215;BME280;16252;49.816;7.964;2023-04-19T05:53:47;100643.16;;;13.47;57.23
29215;BME280;16252;49.816;7.964;2023-04-19T05:56:13;100628.97;;;13.45;57.35
29215;BME280;16252;49.816;7.964;2023-04-19T05:58:38;100626.53;;;13.42;57.41
29215;BME280;16252;49.816;7.964;2023-04-19T06:01:03;100643.91;;;13.60;57.49
29215;BME280;16252;49.816;7.964;2023-04-19T06:03:29;100660.19;;;13.70;57.25
29215;BME280;16252;49.816;7.964;2023-04-19T06:05:54;100645.25;;;13.66;57.12
29215;BME280;16252;49.816;7.964;2023-04-19T06:08:19;100625.69;;;13.64;57.11
29215;BME280;16252;49.816;7.964;2023-04-19T06:10:45;100620.81;;;13.58;57.25
29215;BME280;16252;49.816;7.964;2023-04-19T06:13:12;100633.50;;;13.67;57.33
29215;BME280;16252;49.816;7.964;2023-04-19T06:15:37;100652.59;;;13.86;57.36
29215;BME280;16252;49.816;7.964;2023-04-19T06:18:04;100632.31;;;13.82;57.29
29215;BME280;16252;49.816;7.964;2023-04-19T06:20:34;100621.66;;;13.81;57.20
29215;BME280;16252;49.816;7.964;2023-04-19T06:23:00;100648.19;;;13.97;57.18
29215;BME280;16252;49.816;7.964;2023-04-19T06:25:25;100645.63;;;13.95;57.37
29215;BME280;16252;49.816;7.964;2023-04-19T06:27:50;100649.28;;;14.05;57.34
29215;BME280;16252;49.816;7.964;2023-04-19T06:30:15;100609.31;;;13.78;57.07
29215;BME280;16252;49.816;7.964;2023-04-19T06:32:41;100578.38;;;13.61;57.22
29215;BME280;16252;49.816;7.964;2023-04-19T06:35:06;100644.28;;;14.01;57.25
29215;BME280;16252;49.816;7.964;2023-04-19T06:37:32;100592.44;;;13.76;57.20
29215;BME280;16252;49.816;7.964;2023-04-19T06:39:58;100631.06;;;13.98;57.03
29215;BME280;16252;49.816;7.964;2023-04-19T06:42:24;100641.34;;;14.04;57.29
29215;BME280;16252;49.816;7.964;2023-04-19T06:44:50;100622.13;;;13.97;57.00
29215;BME280;16252;49.816;7.964;2023-04-19T06:47:15;100616.03;;;13.95;57.23
29215;BME280;16252;49.816;7.964;2023-04-19T06:49:41;100660.16;;;14.26;57.04
29215;BME280;16252;49.816;7.964;2023-04-19T06:52:06;100600.50;;;13.99;57.20
29215;BME280;16252;49.816;7.964;2023-04-19T06:54:31;100628.72;;;14.16;57.19
29215;BME280;16252;49.816;7.964;2023-04-19T06:56:56;100660.84;;;14.40;56.87
29215;BME280;16252;49.816;7.964;2023-04-19T06:59:22;100638.59;;;14.26;56.75
29215;BME280;16252;49.816;7.964;2023-04-19T07:01:47;100638.25;;;14.31;56.80
29215;BME280;16252;49.816;7.964;2023-04-19T07:04:13;100621.34;;;14.29;56.88
29215;BME280;16252;49.816;7.964;2023-04-19T07:06:38;100657.16;;;14.52;56.80
29215;BME280;16252;49.816;7.964;2023-04-19T07:09:05;100651.53;;;14.55;56.52
29215;BME280;16252;49.816;7.964;2023-04-19T07:11:31;100648.47;;;14.60;56.71
29215;BME280;16252;49.816;7.964;2023-04-19T07:13:57;100651.75;;;14.63;56.33
29215;BME280;16252;49.816;7.964;2023-04-19T07:16:22;100623.00;;;14.52;56.02
29215;BME280;16252;49.816;7.964;2023-04-19T07:18:47;100645.88;;;14.69;56.12
29215;BME280;16252;49.816;7.964;2023-04-19T07:21:13;100649.16;;;14.73;56.03
29215;BME280;16252;49.816;7.964;2023-04-19T07:23:39;100623.84;;;14.64;55.93
29215;BME280;16252;49.816;7.964;2023-04-19T07:26:04;100629.97;;;14.66;55.95
29215;BME280;16252;49.816;7.964;2023-04-19T07:28:30;100639.56;;;14.80;55.85
29215;BME280;16252;49.816;7.964;2023-04-19T07:30:56;100637.88;;;14.79;55.85
29215;BME280;16252;49.816;7.964;2023-04-19T07:33:22;100622.94;;;14.75;55.56
29215;BME280;16252;49.816;7.964;2023-04-19T07:35:47;100579.06;;;14.52;55.58
29215;BME280;16252;49.816;7.964;2023-04-19T07:38:13;100586.53;;;14.60;55.49
29215;BME280;16252;49.816;7.964;2023-04-19T07:40:38;100588.31;;;14.70;55.12
29215;BME280;16252;49.816;7.964;2023-04-19T07:43:03;100618.84;;;14.92;55.20
29215;BME280;16252;49.816;7.964;2023-04-19T07:45:29;100620.03;;;14.99;55.07
29215;BME280;16252;49.816;7.964;2023-04-19T07:47:55;100620.50;;;15.04;54.69
29215;BME280;16252;49.816;7.964;2023-04-19T07:50:20;100634.63;;;15.17;54.54
29215;BME280;16252;49.816;7.964;2023-04-19T07:52:45;100610.19;;;15.09;54.19
29215;BME280;16252;49.816;7.964;2023-04-19T07:55:11;100632.66;;;15.20;54.53
29215;BME280;16252;49.816;7.964;2023-04-19T07:57:36;100613.00;;;15.08;54.53
29215;BME280;16252;49.816;7.964;2023-04-19T08:00:01;100614.69;;;15.09;54.19
29215;BME280;16252;49.816;7.964;2023-04-19T08:02:28;100621.25;;;15.16;54.05
29215;BME280;16252;49.816;7.964;2023-04-19T08:04:53;100609.06;;;15.12;54.12
29215;BME280;16252;49.816;7.964;2023-04-19T08:07:18;100596.09;;;15.06;54.01
29215;BME280;16252;49.816;7.964;2023-04-19T08:09:44;100588.94;;;14.95;53.78
29215;BME280;16252;49.816;7.964;2023-04-19T08:12:09;100624.22;;;15.13;53.71
29215;BME280;16252;49.816;7.964;2023-04-19T08:14:34;100619.97;;;15.10;53.41
29215;BME280;16252;49.816;7.964;2023-04-19T08:16:59;100597.41;;;14.90;53.99
29215;BME280;16252;49.816;7.964;2023-04-19T08:19:27;100607.91;;;14.93;54.00
29215;BME280;16252;49.816;7.964;2023-04-19T08:21:52;100602.69;;;14.92;53.80
29215;BME280;16252;49.816;7.964;2023-04-19T08:24:18;100582.16;;;14.80;53.43
29215;BME280;16252;49.816;7.964;2023-04-19T08:26:43;100610.28;;;14.87;53.26
29215;BME280;16252;49.816;7.964;2023-04-19T08:29:09;100605.75;;;14.87;53.23
29215;BME280;16252;49.816;7.964;2023-04-19T08:31:34;100612.84;;;14.88;53.15
29215;BME280;16252;49.816;7.964;2023-04-19T08:33:59;100586.34;;;14.72;53.13
29215;BME280;16252;49.816;7.964;2023-04-19T08:36:26;100607.88;;;14.84;53.27
29215;BME280;16252;49.816;7.964;2023-04-19T08:38:53;100601.00;;;14.80;52.94
29215;BME280;16252;49.816;7.964;2023-04-19T08:41:19;100623.03;;;14.85;52.78
29215;BME280;16252;49.816;7.964;2023-04-19T08:43:46;100582.19;;;14.68;52.92
29215;BME280;16252;49.816;7.964;2023-04-19T08:46:13;100628.50;;;14.94;53.31
29215;BME280;16252;49.816;7.964;2023-04-19T08:48:39;100619.56;;;14.94;53.42
29215;BME280;16252;49.816;7.964;2023-04-19T08:51:04;100611.59;;;14.92;52.96
29215;BME280;16252;49.816;7.964;2023-04-19T08:53:32;100595.25;;;14.84;52.54
29215;BME280;16252;49.816;7.964;2023-04-19T08:55:57;100584.19;;;14.87;53.14
29215;BME280;16252;49.816;7.964;2023-04-19T08:58:24;100586.50;;;14.92;53.25
29215;BME280;16252;49.816;7.964;2023-04-19T09:00:50;100594.06;;;14.98;52.82
29215;BME280;16252;49.816;7.964;2023-04-19T09:03:15;100601.09;;;15.10;52.73
29215;BME280;16252;49.816;7.964;2023-04-19T09:05:41;100584.59;;;15.04;52.66
29215;BME280;16252;49.816;7.964;2023-04-19T09:08:23;100617.53;;;15.28;52.13
29215;BME280;16252;49.816;7.964;2023-04-19T09:10:57;100612.13;;;15.28;52.61
29215;BME280;16252;49.816;7.964;2023-04-19T09:13:23;100594.31;;;15.16;52.27
29215;BME280;16252;49.816;7.964;2023-04-19T09:15:49;100580.66;;;15.08;52.37
29215;BME280;16252;49.816;7.964;2023-04-19T09:18:15;100606.88;;;15.27;52.17
29215;BME280;16252;49.816;7.964;2023-04-19T09:20:42;100608.59;;;15.28;51.87
29215;BME280;16252;49.816;7.964;2023-04-19T09:23:10;100605.16;;;15.26;52.21
29215;BME280;16252;49.816;7.964;2023-04-19T09:25:37;100579.41;;;15.12;52.40
29215;BME280;16252;49.816;7.964;2023-04-19T09:28:12;100594.84;;;15.31;51.69
29215;BME280;16252;49.816;7.964;2023-04-19T09:30:39;100574.59;;;15.15;52.18
29215;BME280;16252;49.816;7.964;2023-04-19T09:33:04;100582.56;;;15.17;52.23
29215;BME280;16252;49.816;7.964;2023-04-19T09:35:40;100586.91;;;15.29;51.94
29215;BME280;16252;49.816;7.964;2023-04-19T09:38:05;100574.59;;;15.15;52.32
29215;BME280;16252;49.816;7.964;2023-04-19T09:40:31;100562.97;;;15.15;52.32
29215;BME280;16252;49.816;7.964;2023-04-19T09:42:56;100560.00;;;15.18;52.02
29215;BME280;16252;49.816;7.964;2023-04-19T09:45:21;100571.97;;;15.25;52.29
29215;BME280;16252;49.816;7.964;2023-04-19T09:48:03;100581.00;;;15.45;51.85
29215;BME280;16252;49.816;7.964;2023-04-19T09:50:29;100537.03;;;15.24;52.14
29215;BME280;16252;49.816;7.964;2023-04-19T09:52:54;100544.91;;;15.36;52.35
29215;BME280;16252;49.816;7.964;2023-04-19T09:55:21;100564.88;;;15.55;52.16
29215;BME280;16252;49.816;7.964;2023-04-19T09:57:46;100556.22;;;15.61;52.32
29215;BME280;16252;49.816;7.964;2023-04-19T10:00:12;100534.09;;;15.57;51.94
29215;BME280;16252;49.816;7.964;2023-04-19T10:02:39;100528.56;;;15.69;51.75
29215;BME280;16252;49.816;7.964;2023-04-19T10:05:09;100539.31;;;15.80;51.65
29215;BME280;16252;49.816;7.964;2023-04-19T10:07:35;100553.72;;;16.19;51.59
29215;BME280;16252;49.816;7.964;2023-04-19T10:10:01;100557.13;;;16.21;51.37
29215;BME280;16252;49.816;7.964;2023-04-19T10:12:27;100527.97;;;16.15;51.71
29215;BME280;16252;49.816;7.964;2023-04-19T10:14:55;100518.78;;;16.37;51.21
29215;BME280;16252;49.816;7.964;2023-04-19T10:17:22;100524.44;;;16.63;50.92
29215;BME280;16252;49.816;7.964;2023-04-19T10:19:55;100525.88;;;16.87;50.57
29215;BME280;16252;49.816;7.964;2023-04-19T10:22:22;100521.91;;;17.28;50.69
29215;BME280;16252;49.816;7.964;2023-04-19T10:25:10;100509.53;;;17.63;50.39
29215;BME280;16252;49.816;7.964;2023-04-19T10:27:37;100527.75;;;18.16;50.66
29215;BME280;16252;49.816;7.964;2023-04-19T10:30:03;100513.81;;;18.47;49.92
29215;BME280;16252;49.816;7.964;2023-04-19T10:32:42;100509.94;;;18.86;49.31
29215;BME280;16252;49.816;7.964;2023-04-19T10:35:08;100501.63;;;19.13;48.39
29215;BME280;16252;49.816;7.964;2023-04-19T10:37:33;100509.75;;;19.39;47.43
29215;BME280;16252;49.816;7.964;2023-04-19T10:39:59;100526.34;;;19.62;47.22
29215;BME280;16252;49.816;7.964;2023-04-19T10:43:13;100519.09;;;19.71;46.87
29215;BME280;16252;49.816;7.964;2023-04-19T10:45:38;100505.97;;;19.66;46.74
29215;BME280;16252;49.816;7.964;2023-04-19T10:48:04;100489.66;;;19.58;46.04
29215;BME280;16252;49.816;7.964;2023-04-19T10:50:29;100500.66;;;19.57;46.08
29215;BME280;16252;49.816;7.964;2023-04-19T10:52:55;100488.56;;;19.43;45.75
29215;BME280;16252;49.816;7.964;2023-04-19T10:55:20;100488.56;;;19.43;45.61
29215;BME280;16252;49.816;7.964;2023-04-19T10:58:04;100514.41;;;19.55;45.25
29215;BME280;16252;49.816;7.964;2023-04-19T11:00:31;100506.38;;;19.37;45.70
29215;BME280;16252;49.816;7.964;2023-04-19T11:06:17;100476.50;;;19.03;44.80
29215;BME280;16252;49.816;7.964;2023-04-19T11:08:44;100495.06;;;19.24;45.02
29215;BME280;16252;49.816;7.964;2023-04-19T11:11:09;100472.28;;;18.82;44.85
29215;BME280;16252;49.816;7.964;2023-04-19T11:13:36;100476.09;;;18.72;45.57
29215;BME280;16252;49.816;7.964;2023-04-19T11:16:07;100469.38;;;18.76;45.02
29215;BME280;16252;49.816;7.964;2023-04-19T11:18:32;100439.75;;;18.56;45.12
29215;BME280;16252;49.816;7.964;2023-04-19T11:20:57;100400.97;;;18.38;45.80
29215;BME280;16252;49.816;7.964;2023-04-19T11:23:23;100468.41;;;18.85;44.82
29215;BME280;16252;49.816;7.964;2023-04-19T11:25:50;100438.38;;;18.78;44.84
29215;BME280;16252;49.816;7.964;2023-04-19T11:28:15;100463.22;;;18.92;44.22
29215;BME280;16252;49.816;7.964;2023-04-19T11:30:41;100445.34;;;18.81;44.25
29215;BME280;16252;49.816;7.964;2023-04-19T11:33:07;100436.44;;;18.71;44.46
29215;BME280;16252;49.816;7.964;2023-04-19T11:35:32;100449.75;;;18.82;44.02
29215;BME280;16252;49.816;7.964;2023-04-19T11:37:58;100436.13;;;18.74;43.92
29215;BME280;16252;49.816;7.964;2023-04-19T11:40:24;100449.59;;;18.83;44.07
29215;BME280;16252;49.816;7.964;2023-04-19T11:43:00;100431.31;;;18.86;43.36
29215;BME280;16252;49.816;7.964;2023-04-19T11:45:36;100450.41;;;19.02;43.28
29215;BME280;16252;49.816;7.964;2023-04-19T11:48:06;100437.00;;;19.00;43.14
29215;BME280;16252;49.816;7.964;2023-04-19T11:50:38;100427.84;;;19.01;43.03
29215;BME280;16252;49.816;7.964;2023-04-19T11:53:15;100427.78;;;18.93;43.77
29215;BME280;16252;49.816;7.964;2023-04-19T11:55:42;100416.13;;;18.75;43.03
29215;BME280;16252;49.816;7.964;2023-04-19T11:58:07;100406.41;;;18.64;42.77
29215;BME280;16252;49.816;7.964;2023-04-19T12:00:35;100404.19;;;18.59;43.13
29215;BME280;16252;49.816;7.964;2023-04-19T12:03:02;100358.66;;;18.37;42.79
29215;BME280;16252;49.816;7.964;2023-04-19T12:05:27;100422.88;;;18.71;42.29
29215;BME280;16252;49.816;7.964;2023-04-19T12:08:00;100395.03;;;18.60;42.47
29215;BME280;16252;49.816;7.964;2023-04-19T12:10:26;100414.38;;;18.66;42.22
29215;BME280;16252;49.816;7.964;2023-04-19T12:12:52;100414.56;;;18.64;41.07
29215;BME280;16252;49.816;7.964;2023-04-19T12:15:17;100420.31;;;18.61;40.81
29215;BME280;16252;49.816;7.964;2023-04-19T12:17:59;100441.19;;;18.69;41.42
29215;BME280;16252;49.816;7.964;2023-04-19T12:20:33;100414.22;;;18.41;39.09
29215;BME280;16252;49.816;7.964;2023-04-19T12:22:59;100430.09;;;18.36;39.47
29215;BME280;16252;49.816;7.964;2023-04-19T12:25:32;100406.59;;;18.18;38.71
29215;BME280;16252;49.816;7.964;2023-04-19T12:27:59;100400.88;;;18.04;39.76
29215;BME280;16252;49.816;7.964;2023-04-19T12:30:25;100425.88;;;18.15;39.62
29215;BME280;16252;49.816;7.964;2023-04-19T12:32:51;100423.44;;;18.12;39.33
29215;BME280;16252;49.816;7.964;2023-04-19T12:35:22;100408.16;;;18.03;39.55
29215;BME280;16252;49.816;7.964;2023-04-19T12:37:48;100403.72;;;18.02;40.11
29215;BME280;16252;49.816;7.964;2023-04-19T12:40:14;100388.59;;;17.91;39.93
29215;BME280;16252;49.816;7.964;2023-04-19T12:42:39;100399.34;;;18.01;40.43
29215;BME280;16252;49.816;7.964;2023-04-19T12:45:05;100384.56;;;17.95;40.53
29215;BME280;16252;49.816;7.964;2023-04-19T12:47:30;100385.94;;;18.00;40.59
29215;BME280;16252;49.816;7.964;2023-04-19T12:49:56;100370.16;;;17.95;40.98
29215;BME280;16252;49.816;7.964;2023-04-19T12:52:22;100388.94;;;18.14;40.63